Time;durP1;ratioP1;P1;durP2;ratioP2;P2;SDS_P1;SDS_P2;PMS_P1;PMS_P2;Temp;Humidity;BMP_temperature;BMP_pressure;BME280_temperature;BME280_humidity;BME280_pressure;Samples;Min_cycle;Max_cycle;Signal;HPM_P1;HPM_P2
2022/10/03 00:01:40;;;;;;;9.15;3.80;;;;;;;13.75;66.66;95260.91;4993696;28;20030;-77
2022/10/03 00:04:12;;;;;;;5.78;3.13;;;;;;;13.69;66.23;95256.75;4993515;28;20032;-78
2022/10/03 00:06:56;;;;;;;;;;;;;;;13.63;66.81;95247.25;4994146;28;20503;-78
2022/10/03 00:09:40;;;;;;;6.70;4.15;;;;;;;13.67;66.70;95252.78;5010976;28;19917;-78
2022/10/03 00:12:41;;;;;;;5.22;3.25;;;;;;;13.62;66.67;95243.00;5010958;28;20025;-78
2022/10/03 00:15:12;;;;;;;5.85;3.88;;;;;;;13.43;67.15;95240.34;5010691;28;20411;-78
2022/10/03 00:18:02;;;;;;;5.53;2.80;;;;;;;13.16;67.00;95191.50;4993130;28;20025;-78
2022/10/03 00:20:45;;;;;;;9.63;3.60;;;;;;;13.45;67.42;95230.22;5010598;28;20403;-78
2022/10/03 00:23:19;;;;;;;4.63;3.15;;;;;;;13.38;67.61;95219.13;5011103;28;20034;-78
2022/10/03 00:26:26;;;;;;;6.07;3.40;;;;;;;13.21;67.82;95197.53;5011133;28;20022;-78
2022/10/03 00:29:42;;;;;;;5.15;3.20;;;;;;;13.33;67.91;95219.22;4971923;28;20056;-78
2022/10/03 00:32:35;;;;;;;6.50;3.55;;;;;;;13.32;67.65;95225.63;4948061;28;20042;-78
2022/10/03 00:35:19;;;;;;;5.25;3.13;;;;;;;13.27;67.84;95228.38;5010976;28;20066;-78
2022/10/03 00:38:11;;;;;;;7.20;2.90;;;;;;;13.01;68.10;95200.47;4993156;28;20507;-78
2022/10/03 00:40:54;;;;;;;11.05;2.63;;;;;;;13.09;68.30;95227.25;5010271;28;20026;-78
2022/10/03 00:43:43;;;;;;;6.95;3.10;;;;;;;13.19;68.25;95236.22;4992948;28;20042;-78
2022/10/03 00:46:27;;;;;;;6.85;3.08;;;;;;;13.16;68.18;95229.59;4991782;28;20095;-77
2022/10/03 00:49:25;;;;;;;9.40;3.50;;;;;;;13.21;67.64;95229.50;5010494;28;20093;-77
2022/10/03 00:52:13;;;;;;;7.50;3.95;;;;;;;13.07;67.68;95220.63;5010236;28;20065;-77
2022/10/03 00:55:17;;;;;;;7.15;3.78;;;;;;;12.80;68.11;95189.31;5027135;28;20041;-77
2022/10/03 00:58:14;;;;;;;9.18;3.80;;;;;;;13.16;67.51;95226.91;4977524;28;20431;-77
2022/10/03 01:00:44;;;;;;;6.05;2.72;;;;;;;13.03;67.80;95217.75;4994128;28;20049;-78
2022/10/03 01:03:45;;;;;;;6.22;3.10;;;;;;;13.12;67.53;95231.22;5002537;28;20049;-78
2022/10/03 01:06:15;;;;;;;7.88;3.67;;;;;;;13.10;67.71;95217.41;4964714;28;20045;-78
2022/10/03 01:09:11;;;;;;;4.40;3.17;;;;;;;13.16;67.68;95212.81;5009374;28;20500;-78
2022/10/03 01:12:02;;;;;;;5.85;3.35;;;;;;;13.11;67.55;95213.66;5010069;28;20033;-78
2022/10/03 01:14:42;;;;;;;8.30;3.90;;;;;;;12.82;67.90;95175.72;4999424;28;20129;-78
2022/10/03 01:17:10;;;;;;;7.72;3.90;;;;;;;13.13;67.97;95220.28;5010398;28;20080;-78
2022/10/03 01:20:00;;;;;;;8.77;3.75;;;;;;;13.06;67.96;95213.72;5010194;28;20056;-78
2022/10/03 01:22:41;;;;;;;15.02;3.83;;;;;;;13.05;68.08;95217.44;4991536;28;20025;-77
2022/10/03 01:25:12;;;;;;;12.80;4.30;;;;;;;13.01;68.05;95211.91;4992440;28;20113;-77
2022/10/03 01:30:21;;;;;;;19.17;3.90;;;;;;;12.98;68.19;95203.69;4992560;28;20034;-77
2022/10/03 01:30:25;;;;;;;8.23;4.10;;;;;;;12.76;68.18;95165.13;5009706;28;20411;-77
2022/10/03 01:33:10;;;;;;;6.82;3.15;;;;;;;12.93;68.13;95199.25;4991898;28;20484;-77
2022/10/03 01:35:44;;;;;;;6.90;4.18;;;;;;;12.90;68.38;95191.81;4992183;28;20046;-78
2022/10/03 01:38:24;;;;;;;11.25;4.30;;;;;;;12.50;68.61;95145.28;4992068;28;20049;-78
2022/10/03 01:41:05;;;;;;;8.55;4.35;;;;;;;12.69;68.37;95187.84;5009897;28;20040;-77
2022/10/03 01:43:51;;;;;;;7.85;3.47;;;;;;;12.15;68.96;95106.63;4996376;28;20030;-78
2022/10/03 01:46:26;;;;;;;12.57;4.30;;;;;;;12.76;68.90;95202.41;4996253;28;20065;-78
2022/10/03 01:49:31;;;;;;;12.50;3.88;;;;;;;12.78;68.85;95199.44;5013933;28;20033;-78
2022/10/03 01:52:03;;;;;;;10.35;3.60;;;;;;;12.74;68.94;95198.44;5014023;28;20040;-78
2022/10/03 01:54:34;;;;;;;14.00;3.00;;;;;;;12.72;69.00;95187.28;5013278;28;20439;-78
2022/10/03 01:57:28;;;;;;;10.43;3.45;;;;;;;12.21;69.41;95134.72;5014122;28;20041;-78
2022/10/03 02:00:04;;;;;;;16.65;3.20;;;;;;;12.10;69.02;95106.69;5013653;28;20034;-77
2022/10/03 02:02:32;;;;;;;7.05;2.90;;;;;;;12.60;69.55;95185.03;4995368;28;20038;-79
2022/10/03 02:05:23;;;;;;;11.25;3.20;;;;;;;12.53;68.90;95181.94;5013392;28;20030;-77
2022/10/03 02:08:02;;;;;;;6.03;2.88;;;;;;;12.65;68.98;95189.53;5013629;28;20030;-78
2022/10/03 02:10:30;;;;;;;6.55;2.72;;;;;;;12.61;68.77;95181.31;5013407;28;20138;-78
2022/10/03 02:13:15;;;;;;;11.38;3.03;;;;;;;12.52;68.84;95166.25;5013094;28;20376;-78
2022/10/03 02:15:53;;;;;;;4.40;2.67;;;;;;;12.61;68.62;95178.66;4995312;28;20036;-78
2022/10/03 02:18:30;;;;;;;4.95;1.83;;;;;;;12.66;68.42;95180.47;5003476;28;20051;-78
2022/10/03 02:21:23;;;;;;;5.40;2.20;;;;;;;12.43;68.38;95149.38;4989001;28;20041;-77
2022/10/03 02:24:05;;;;;;;5.22;2.20;;;;;;;12.28;68.76;95140.47;5013093;28;20611;-78
2022/10/03 02:27:01;;;;;;;5.28;2.58;;;;;;;12.56;68.60;95189.34;4995498;28;20041;-78
2022/10/03 02:29:58;;;;;;;8.65;2.38;;;;;;;12.27;68.44;95146.09;4995450;28;20128;-78
2022/10/03 02:33:01;;;;;;;5.15;2.60;;;;;;;12.64;68.63;95194.06;5013109;28;20042;-78
2022/10/03 02:35:48;;;;;;;4.95;2.42;;;;;;;12.64;68.40;95190.59;4994722;28;20034;-78
2022/10/03 02:38:16;;;;;;;12.88;2.95;;;;;;;12.69;68.50;95193.97;5012898;28;20033;-78
2022/10/03 02:41:37;;;;;;;11.63;3.88;;;;;;;12.68;68.76;95197.72;5012795;28;20511;-78
2022/10/03 02:44:18;;;;;;;12.48;4.53;;;;;;;12.58;69.35;95192.53;4932237;29;20498;-78
2022/10/03 02:47:08;;;;;;;12.00;5.10;;;;;;;12.69;69.02;95190.53;4984724;28;20108;-78
2022/10/03 02:49:33;;;;;;;15.32;5.07;;;;;;;12.67;68.65;95192.66;4994831;28;20057;-78
2022/10/03 02:52:18;;;;;;;15.82;5.28;;;;;;;12.79;68.24;95190.41;5012515;28;20155;-78
2022/10/03 02:55:06;;;;;;;14.95;4.90;;;;;;;12.59;68.29;95140.88;4994401;28;20527;-78
2022/10/03 02:57:34;;;;;;;10.20;5.25;;;;;;;12.85;68.01;95191.13;5012954;28;20041;-78
2022/10/03 03:00:19;;;;;;;9.40;4.80;;;;;;;12.53;67.84;95144.69;4994698;28;20163;-78
2022/10/03 03:03:07;;;;;;;16.95;5.75;;;;;;;12.90;67.37;95185.72;4994744;28;20034;-78
2022/10/03 03:05:58;;;;;;;7.97;5.22;;;;;;;12.70;67.24;95154.84;4994300;28;20032;-78
2022/10/03 03:08:48;;;;;;;12.55;5.32;;;;;;;12.85;67.54;95189.25;4994728;28;20104;-78
2022/10/03 03:11:53;;;;;;;14.25;5.82;;;;;;;12.89;67.57;95186.81;5012503;28;20041;-78
2022/10/03 03:14:37;;;;;;;12.32;5.18;;;;;;;12.89;67.70;95184.16;5012334;28;20026;-78
2022/10/03 03:17:33;;;;;;;12.10;4.82;;;;;;;12.84;67.70;95189.53;5011996;28;20029;-78
2022/10/03 03:20:14;;;;;;;10.95;4.60;;;;;;;12.86;67.97;95185.50;5012248;28;20054;-78
2022/10/03 03:23:08;;;;;;;11.35;5.55;;;;;;;12.55;68.11;95176.34;4994566;28;20557;-78
2022/10/03 03:26:16;;;;;;;9.45;4.22;;;;;;;12.75;67.56;95181.38;5011695;28;20061;-77
2022/10/03 03:29:09;;;;;;;11.35;4.78;;;;;;;12.82;67.61;95178.38;5011902;28;20045;-79
2022/10/03 03:31:55;;;;;;;15.93;5.25;;;;;;;12.85;67.41;95170.63;5012137;28;20033;-77
2022/10/03 03:34:28;;;;;;;10.43;5.68;;;;;;;12.87;67.78;95170.34;4993902;28;20034;-78
2022/10/03 03:37:48;;;;;;;16.13;4.40;;;;;;;12.84;68.40;95182.34;4993611;28;20030;-78
2022/10/03 03:40:22;;;;;;;12.43;5.53;;;;;;;12.75;68.42;95170.75;4928564;29;20040;-79
2022/10/03 03:42:55;;;;;;;12.52;5.13;;;;;;;12.50;68.42;95112.56;4921925;29;20039;-78
2022/10/03 03:45:32;;;;;;;14.13;5.60;;;;;;;12.82;68.50;95173.03;4997376;28;20491;-78
2022/10/03 03:47:57;;;;;;;15.88;5.47;;;;;;;12.82;68.49;95160.53;4999091;28;20040;-78
2022/10/03 03:50:51;;;;;;;11.25;4.97;;;;;;;12.77;68.59;95163.28;4993803;28;20030;-78
2022/10/03 03:54:08;;;;;;;13.18;5.82;;;;;;;12.78;68.68;95162.19;5011523;28;20407;-78
2022/10/03 03:57:00;;;;;;;14.57;5.18;;;;;;;12.71;68.88;95165.22;4950555;28;20058;-78
2022/10/03 03:59:26;;;;;;;11.82;5.05;;;;;;;12.76;68.87;95169.66;4989964;28;20045;-77
2022/10/03 04:02:32;;;;;;;17.10;5.78;;;;;;;12.39;68.75;95103.94;5011029;28;20169;-78
2022/10/03 04:05:21;;;;;;;9.43;5.00;;;;;;;12.45;69.25;95107.31;4992425;28;20029;-78
2022/10/03 04:08:12;;;;;;;9.85;5.57;;;;;;;12.56;69.26;95130.03;4993106;28;20124;-78
2022/10/03 04:11:19;;;;;;;10.82;4.95;;;;;;;12.75;69.49;95152.13;4993690;28;20113;-78
2022/10/03 04:14:29;;;;;;;16.73;6.13;;;;;;;12.69;69.59;95148.75;4950900;28;20045;-78
2022/10/03 04:19:41;;;;;;;15.82;5.70;;;;;;;12.75;69.19;95141.47;5005660;28;20092;-78
2022/10/03 04:22:21;;;;;;;17.85;6.65;;;;;;;12.42;69.20;95102.56;5011247;28;20037;-78
2022/10/03 04:25:04;;;;;;;18.40;5.45;;;;;;;12.67;69.63;95142.91;5010579;28;20184;-78
2022/10/03 04:27:50;;;;;;;15.45;5.88;;;;;;;12.74;69.65;95147.88;4992557;28;20034;-77
2022/10/03 04:31:01;;;;;;;15.65;5.65;;;;;;;12.60;69.44;95141.69;4993017;28;20124;-78
2022/10/03 04:33:55;;;;;;;10.50;5.50;;;;;;;12.55;69.83;95149.72;5010758;28;20038;-78
2022/10/03 04:36:35;;;;;;;18.38;6.32;;;;;;;12.65;69.82;95146.94;4992776;28;20038;-77
2022/10/03 04:39:13;;;;;;;11.45;6.15;;;;;;;12.75;69.39;95142.25;5010502;28;20144;-77
2022/10/03 04:42:25;;;;;;;21.23;5.43;;;;;;;12.78;69.46;95148.88;5010624;28;20029;-78
2022/10/03 04:44:54;;;;;;;9.90;6.00;;;;;;;12.62;69.49;95150.97;4936452;29;20035;-79
2022/10/03 04:47:30;;;;;;;17.23;7.47;;;;;;;12.30;69.68;95095.78;4983809;28;20038;-78
2022/10/03 04:50:07;;;;;;;12.77;5.70;;;;;;;12.42;69.84;95129.16;5009710;28;20045;-78
2022/10/03 04:52:41;;;;;;;16.27;5.63;;;;;;;12.61;69.42;95153.91;5010380;28;20056;-79
2022/10/03 04:55:16;;;;;;;16.70;5.70;;;;;;;12.36;70.00;95142.50;4993056;28;20389;-78
2022/10/03 04:57:44;;;;;;;16.77;7.20;;;;;;;12.46;70.02;95144.25;4992441;28;20034;-78
2022/10/03 05:00:27;;;;;;;16.55;6.32;;;;;;;12.49;69.29;95140.25;4990245;28;20116;-78
2022/10/03 05:03:34;;;;;;;21.85;7.10;;;;;;;12.53;69.15;95143.91;5004452;28;20116;-78
2022/10/03 05:06:10;;;;;;;14.80;5.82;;;;;;;12.68;68.43;95146.34;4967843;28;20042;-78
2022/10/03 05:08:54;;;;;;;15.20;5.93;;;;;;;12.67;68.76;95150.88;5005473;28;20029;-78
2022/10/03 05:11:20;;;;;;;19.08;6.07;;;;;;;12.80;68.19;95143.28;4989003;28;20132;-78
2022/10/03 05:14:10;;;;;;;28.15;6.10;;;;;;;12.82;68.18;95135.78;4989679;28;20563;-77
2022/10/03 05:16:54;;;;;;;14.65;5.78;;;;;;;12.74;67.52;95110.63;4982031;28;20435;-78
2022/10/03 05:19:59;;;;;;;15.05;5.85;;;;;;;12.87;67.70;95131.19;5007090;28;20053;-77
2022/10/03 05:22:37;;;;;;;13.57;5.13;;;;;;;12.98;68.15;95140.59;4995748;28;20572;-77
2022/10/03 05:25:28;;;;;;;25.80;6.10;;;;;;;13.08;67.91;95143.13;5000969;28;20036;-77
2022/10/03 05:28:32;;;;;;;14.60;5.95;;;;;;;13.16;67.66;95148.91;4997685;28;20125;-79
2022/10/03 05:31:11;;;;;;;15.52;6.88;;;;;;;13.20;67.76;95147.25;4989732;28;20038;-78
2022/10/03 05:33:44;;;;;;;16.38;5.85;;;;;;;13.28;67.66;95139.38;4994613;28;20415;-78
2022/10/03 05:36:40;;;;;;;19.10;6.68;;;;;;;13.34;68.06;95132.13;4991047;28;20038;-78
2022/10/03 05:39:27;;;;;;;23.58;7.10;;;;;;;13.39;68.25;95118.69;5008113;28;20435;-78
2022/10/03 05:42:20;;;;;;;16.98;6.43;;;;;;;13.42;68.35;95108.28;5007521;28;20374;-78
2022/10/03 05:44:54;;;;;;;22.27;5.88;;;;;;;13.27;68.30;95081.09;5007879;28;20038;-78
2022/10/03 05:51:12;;;;;;;20.60;5.47;;;;;;;13.16;67.97;95043.19;4947865;29;20043;-78
2022/10/03 05:54:21;;;;;;;16.58;5.57;;;;;;;13.73;67.27;95127.16;4945624;28;20067;-78
2022/10/03 05:57:10;;;;;;;19.70;5.07;;;;;;;13.79;66.63;95125.22;4984571;28;20092;-78
2022/10/03 05:59:59;;;;;;;16.63;5.18;;;;;;;13.64;65.98;95099.63;5002913;28;20422;-79
2022/10/03 06:02:49;;;;;;;16.58;6.40;;;;;;;13.87;65.20;95127.19;4996549;28;20079;-78
2022/10/03 06:05:21;;;;;;;14.38;5.85;;;;;;;13.78;65.56;95132.41;4996954;28;20399;-79
2022/10/03 06:08:04;;;;;;;;;;;;;;;13.84;65.16;95131.22;5007826;28;20483;-78
2022/10/03 06:10:38;;;;;;;23.50;6.30;;;;;;;13.93;65.20;95135.88;4990134;28;19933;-78
2022/10/03 06:13:13;;;;;;;25.85;6.85;;;;;;;13.88;65.04;95142.88;4997490;28;20496;-77
2022/10/03 06:15:57;;;;;;;27.27;8.20;;;;;;;13.96;65.44;95133.41;5008863;28;20046;-79
2022/10/03 06:18:25;;;;;;;18.95;7.05;;;;;;;14.03;65.07;95149.03;5001646;28;20065;-77
2022/10/03 06:21:09;;;;;;;22.30;6.72;;;;;;;13.99;64.73;95148.03;4990626;28;20057;-77
2022/10/03 06:23:56;;;;;;;18.40;6.78;;;;;;;14.01;64.84;95159.19;4991011;28;20037;-77
2022/10/03 06:27:00;;;;;;;14.25;7.00;;;;;;;13.91;64.92;95134.28;5001652;28;20038;-78
2022/10/03 06:29:25;;;;;;;19.40;7.28;;;;;;;14.01;64.48;95151.97;4995931;28;20490;-77
2022/10/03 06:32:01;;;;;;;18.67;7.47;;;;;;;14.05;64.33;95146.84;5001537;28;20029;-77
2022/10/03 06:34:59;;;;;;;18.05;6.78;;;;;;;14.16;64.07;95149.03;5012465;28;20084;-78
2022/10/03 06:37:43;;;;;;;27.42;7.53;;;;;;;14.26;63.63;95140.84;4982537;28;20054;-78
2022/10/03 06:40:17;;;;;;;15.05;7.18;;;;;;;14.14;63.51;95148.53;4980353;28;20412;-78
2022/10/03 06:42:51;;;;;;;17.00;7.20;;;;;;;13.69;63.67;95091.53;5014403;28;20504;-78
2022/10/03 06:45:38;;;;;;;15.95;7.13;;;;;;;14.05;63.75;95171.63;4994537;28;20025;-78
2022/10/03 06:48:22;;;;;;;22.02;8.32;;;;;;;13.98;63.70;95170.44;5012386;28;20045;-77
2022/10/03 06:50:50;;;;;;;20.30;10.65;;;;;;;14.10;63.43;95160.88;5008450;28;20377;-79
2022/10/03 06:53:28;;;;;;;32.05;12.63;;;;;;;13.77;63.93;95087.38;4994269;28;20050;-78
2022/10/03 06:56:05;;;;;;;27.85;12.10;;;;;;;14.31;63.82;95163.94;5011801;28;20037;-78
2022/10/03 06:58:43;;;;;;;29.70;11.27;;;;;;;14.48;62.72;95161.50;4993288;28;20041;-77
2022/10/03 07:01:11;;;;;;;24.40;9.80;;;;;;;14.54;63.15;95172.84;5011581;28;20396;-79
2022/10/03 07:03:59;;;;;;;18.85;9.02;;;;;;;14.46;63.16;95184.22;4993147;28;20107;-78
2022/10/03 07:06:37;;;;;;;25.05;8.85;;;;;;;14.19;63.21;95134.28;5006836;28;20121;-79
2022/10/03 07:09:22;;;;;;;14.98;6.80;;;;;;;14.28;63.71;95192.00;5001033;28;20045;-78
2022/10/03 07:12:00;;;;;;;18.38;7.85;;;;;;;14.25;63.60;95197.94;5008699;28;20034;-78
2022/10/03 07:15:03;;;;;;;11.52;4.65;;;;;;;14.18;62.75;95207.41;4993051;28;20064;-78
2022/10/03 07:17:40;;;;;;;8.02;4.22;;;;;;;14.06;64.95;95215.09;5010915;28;20049;-79
2022/10/03 07:20:16;;;;;;;9.55;5.25;;;;;;;13.79;66.98;95218.50;5011316;28;20038;-78
2022/10/03 07:23:11;;;;;;;16.70;6.38;;;;;;;13.75;68.10;95228.94;4994224;28;20037;-79
2022/10/03 07:25:58;;;;;;;20.48;14.27;;;;;;;13.67;69.11;95245.59;5011764;28;20057;-78
2022/10/03 07:28:32;;;;;;;27.42;16.52;;;;;;;13.28;69.23;95256.56;5009964;28;20116;-77
2022/10/03 07:31:08;;;;;;;18.13;12.07;;;;;;;12.95;69.96;95206.97;5011254;28;20041;-77
2022/10/03 07:34:05;;;;;;;15.23;10.50;;;;;;;13.17;70.54;95249.00;5010740;28;20037;-78
2022/10/03 07:39:51;;;;;;;18.55;8.38;;;;;;;13.08;71.13;95260.28;5011976;28;20053;-78
2022/10/03 07:42:20;;;;;;;16.55;7.30;;;;;;;13.11;70.88;95262.38;5011519;28;20112;-79
2022/10/03 07:45:23;;;;;;;21.73;8.52;;;;;;;13.31;71.47;95268.53;5010903;28;20471;-79
2022/10/03 07:48:16;;;;;;;10.68;7.32;;;;;;;13.13;71.73;95254.91;5011590;28;20457;-78
2022/10/03 07:50:49;;;;;;;22.48;8.75;;;;;;;13.28;72.44;95258.44;5010648;28;20044;-78
2022/10/03 07:53:33;;;;;;;21.15;8.27;;;;;;;13.00;73.79;95236.94;4991558;28;20038;-78
2022/10/03 07:56:36;;;;;;;20.50;8.40;;;;;;;13.26;73.42;95253.41;4991205;28;20033;-78
2022/10/03 07:59:40;;;;;;;20.52;7.63;;;;;;;13.18;73.97;95253.25;5007696;28;20476;-78
2022/10/03 08:02:41;;;;;;;21.35;7.60;;;;;;;12.81;74.36;95233.50;5007792;28;20026;-78
2022/10/03 08:05:44;;;;;;;20.88;6.90;;;;;;;12.87;74.70;95253.63;5008653;28;20033;-78
2022/10/03 08:08:30;;;;;;;14.82;7.45;;;;;;;13.00;75.28;95252.94;4989423;28;20091;-78
2022/10/03 08:11:15;;;;;;;16.50;7.20;;;;;;;13.20;75.37;95261.75;4992612;28;20030;-78
2022/10/03 08:13:49;;;;;;;21.55;7.63;;;;;;;13.13;75.55;95254.09;4988634;28;20041;-78
2022/10/03 08:16:30;;;;;;;21.38;8.55;;;;;;;13.04;76.96;95258.47;5007876;28;20096;-78
2022/10/03 08:19:38;;;;;;;17.30;8.45;;;;;;;13.03;76.15;95262.22;4994805;28;20147;-79
2022/10/03 08:22:59;;;;;;;21.52;8.68;;;;;;;13.25;75.38;95264.34;5010358;28;20459;-78
2022/10/03 08:25:56;;;;;;;29.88;9.10;;;;;;;13.20;74.50;95261.75;4929740;28;20050;-78
2022/10/03 08:28:33;;;;;;;26.48;9.73;;;;;;;13.30;75.88;95270.38;4986710;28;20141;-78
2022/10/03 08:31:26;;;;;;;25.00;9.68;;;;;;;13.38;76.69;95269.75;4991711;28;20121;-78
2022/10/03 08:34:15;;;;;;;25.65;8.50;;;;;;;13.28;76.43;95275.19;4992537;28;20041;-78
2022/10/03 08:36:47;;;;;;;22.83;9.10;;;;;;;13.37;77.94;95273.47;5010406;28;20412;-79
2022/10/03 08:39:50;;;;;;;19.85;5.95;;;;;;;13.16;77.25;95272.19;4992292;28;20045;-78
2022/10/03 08:42:40;;;;;;;11.05;4.80;;;;;;;12.70;77.44;95247.97;4992912;28;20495;-78
2022/10/03 08:45:51;;;;;;;6.30;4.00;;;;;;;12.77;77.68;95285.69;4992263;28;20037;-81
2022/10/03 08:48:47;;;;;;;7.43;3.00;;;;;;;12.70;77.18;95285.22;4988512;28;20046;-78
2022/10/03 08:51:29;;;;;;;6.82;3.10;;;;;;;12.43;79.30;95250.44;5009517;28;20042;-78
2022/10/03 08:54:13;;;;;;;7.00;2.55;;;;;;;12.68;79.99;95282.06;4992284;28;20095;-78
2022/10/03 08:56:44;;;;;;;7.00;2.90;;;;;;;12.74;81.36;95286.25;5001247;28;20504;-78
2022/10/03 08:59:25;;;;;;;6.13;3.28;;;;;;;12.82;80.20;95293.59;4997192;28;20142;-78
2022/10/03 09:02:08;;;;;;;8.85;3.10;;;;;;;12.89;79.35;95288.72;5007902;28;20503;-78
2022/10/03 09:04:50;;;;;;;5.63;3.03;;;;;;;13.04;78.34;95299.22;5008589;28;20659;-78
2022/10/03 09:07:21;;;;;;;12.38;3.60;;;;;;;13.01;78.00;95301.63;4992911;28;20065;-79
2022/10/03 09:10:18;;;;;;;3.22;2.67;;;;;;;12.97;78.92;95290.75;4991842;28;20037;-79
2022/10/03 09:13:25;;;;;;;5.35;3.00;;;;;;;13.03;79.57;95304.81;5009803;28;20057;-78
2022/10/03 09:15:56;;;;;;;7.28;2.75;;;;;;;13.02;78.40;95317.34;4955284;28;20050;-78
2022/10/03 09:18:40;;;;;;;5.35;3.20;;;;;;;13.04;78.35;95298.41;4984658;28;20061;-78
2022/10/03 09:21:38;;;;;;;4.57;3.20;;;;;;;13.16;79.20;95298.03;4991898;28;20044;-78
2022/10/03 09:24:22;;;;;;;6.97;3.10;;;;;;;12.83;78.29;95249.94;4976541;28;20196;-78
2022/10/03 09:27:13;;;;;;;6.85;2.85;;;;;;;13.15;77.92;95299.88;4992042;28;20046;-80
2022/10/03 09:29:47;;;;;;;6.35;2.55;;;;;;;13.11;77.65;95299.66;4992275;28;20049;-78
2022/10/03 09:32:16;;;;;;;7.53;3.10;;;;;;;13.17;78.67;95291.63;4991802;28;20041;-79
2022/10/03 09:35:16;;;;;;;9.98;3.05;;;;;;;13.10;78.13;95273.31;4989018;28;20497;-78
2022/10/03 09:38:08;;;;;;;8.93;3.22;;;;;;;13.31;77.63;95295.94;4990937;28;20087;-79
2022/10/03 09:41:10;;;;;;;4.72;2.35;;;;;;;13.37;77.34;95281.47;4972124;28;20104;-80
2022/10/03 09:43:56;;;;;;;10.30;3.67;;;;;;;13.54;77.92;95275.66;5009264;28;20037;-79
2022/10/03 09:46:43;;;;;;;14.02;3.30;;;;;;;13.81;75.95;95283.75;4991574;28;20038;-79
2022/10/03 09:49:52;;;;;;;5.85;3.08;;;;;;;14.01;76.51;95276.50;5006771;28;20444;-79
2022/10/03 09:52:39;;;;;;;6.95;3.58;;;;;;;14.03;74.11;95272.47;5007966;28;20037;-79
2022/10/03 09:55:27;;;;;;;4.97;3.22;;;;;;;13.99;72.68;95292.78;5005592;28;20041;-79
2022/10/03 09:58:05;;;;;;;7.97;3.33;;;;;;;13.96;72.68;95271.28;4971959;28;20040;-79
2022/10/03 10:00:46;;;;;;;7.00;3.92;;;;;;;14.28;71.71;95250.69;5009098;28;20038;-79
2022/10/03 10:03:33;;;;;;;8.63;3.05;;;;;;;14.77;70.60;95275.16;4993793;28;20030;-79
2022/10/03 10:06:15;;;;;;;9.77;3.30;;;;;;;15.62;69.75;95266.44;4993955;28;20025;-80
2022/10/03 10:09:15;;;;;;;7.43;3.47;;;;;;;16.22;68.36;95266.84;5011557;28;20073;-80
2022/10/03 10:12:06;;;;;;;5.43;1.85;;;;;;;15.60;64.29;95237.31;5012237;28;20507;-79
2022/10/03 10:14:41;;;;;;;6.70;2.42;;;;;;;15.30;64.83;95188.03;4990673;28;20073;-80
2022/10/03 10:17:28;;;;;;;5.70;1.90;;;;;;;15.36;64.24;95266.97;5011141;28;20140;-80
2022/10/03 10:20:23;;;;;;;8.40;2.10;;;;;;;14.96;64.40;95270.50;5011388;28;20049;-81
2022/10/03 10:22:55;;;;;;;1.70;1.60;;;;;;;14.95;63.82;95274.28;5000755;28;20473;-78
2022/10/03 10:25:59;;;;;;;2.83;1.92;;;;;;;14.82;64.55;95257.16;5002847;28;20030;-79
2022/10/03 10:28:33;;;;;;;7.20;1.95;;;;;;;14.81;65.15;95260.13;4973989;28;20435;-79
2022/10/03 10:31:20;;;;;;;3.45;2.10;;;;;;;14.74;64.15;95278.41;5011838;28;20100;-78
2022/10/03 10:34:10;;;;;;;2.53;1.98;;;;;;;14.70;63.60;95267.56;4994881;28;20030;-80
2022/10/03 10:36:47;;;;;;;7.95;1.77;;;;;;;14.73;63.52;95269.63;4994130;28;20519;-79
2022/10/03 10:39:44;;;;;;;3.60;1.80;;;;;;;14.87;64.36;95259.75;4994127;28;20523;-79
2022/10/03 10:42:15;;;;;;;2.15;1.40;;;;;;;14.84;63.14;95276.34;4993004;28;20034;-79
2022/10/03 10:45:01;;;;;;;;;;;;;;;14.88;62.53;95271.97;5010262;28;20487;-79
2022/10/03 10:48:10;;;;;;;1.98;1.50;;;;;;;15.02;61.85;95266.66;4991109;28;20015;-79
2022/10/03 10:50:54;;;;;;;3.13;1.73;;;;;;;15.11;61.54;95266.72;5007933;28;20038;-79
2022/10/03 10:53:57;;;;;;;3.03;1.92;;;;;;;15.11;61.05;95261.38;5009543;28;20069;-79
2022/10/03 10:57:00;;;;;;;1.83;1.35;;;;;;;15.18;60.70;95257.19;4982396;28;20049;-79
2022/10/03 11:00:04;;;;;;;4.38;1.92;;;;;;;15.67;59.43;95268.97;4992740;28;20041;-79
2022/10/03 11:02:36;;;;;;;2.80;1.75;;;;;;;15.70;58.65;95261.16;4992278;28;20041;-78
2022/10/03 11:05:20;;;;;;;;;;;;;;;15.75;58.88;95266.38;4992540;28;20042;-79
2022/10/03 11:08:07;;;;;;;3.22;1.73;;;;;;;15.93;58.55;95311.97;4992890;28;20324;-78
2022/10/03 11:11:05;;;;;;;3.70;1.70;;;;;;;15.84;58.77;95263.78;4992837;28;20037;-79
2022/10/03 11:14:07;;;;;;;1.90;1.45;;;;;;;15.92;58.90;95270.28;5011316;28;20041;-79
2022/10/03 11:17:19;;;;;;;4.45;1.85;;;;;;;15.83;58.27;95227.44;4993827;28;20107;-79
2022/10/03 11:19:56;;;;;;;;;;;;;;;16.26;58.74;95262.44;5011448;28;20046;-79
2022/10/03 11:23:17;;;;;;;5.47;2.10;;;;;;;15.87;58.33;95219.59;4993642;28;20388;-79
2022/10/03 11:25:49;;;;;;;6.43;2.50;;;;;;;15.98;58.38;95263.69;4931208;29;20095;-78
2022/10/03 11:28:21;;;;;;;4.03;2.00;;;;;;;15.73;58.75;95281.13;4978992;28;20153;-78
2022/10/03 11:30:52;;;;;;;;;;;;;;;15.68;58.23;95273.25;5008666;28;20092;-78
2022/10/03 11:33:49;;;;;;;2.63;2.42;;;;;;;15.90;57.66;95339.31;4992796;28;20454;-78
2022/10/03 11:37:08;;;;;;;4.22;2.60;;;;;;;15.34;58.10;95282.50;4993381;28;20593;-79
2022/10/03 11:39:54;;;;;;;6.05;3.42;;;;;;;15.41;58.18;95266.84;4912301;29;20466;-79
2022/10/03 11:42:42;;;;;;;5.45;3.63;;;;;;;15.49;58.00;95277.91;4914535;29;20036;-78
2022/10/03 11:45:33;;;;;;;8.52;4.28;;;;;;;15.13;59.41;95208.44;4992209;28;20034;-80
2022/10/03 11:48:19;;;;;;;5.22;4.20;;;;;;;15.56;58.50;95263.09;4979715;28;20133;-78
2022/10/03 11:50:53;;;;;;;6.43;3.60;;;;;;;15.77;57.24;95256.19;4987208;28;20059;-78
2022/10/03 11:53:40;;;;;;;11.07;4.10;;;;;;;16.01;57.03;95276.47;5008645;28;20120;-79
2022/10/03 11:56:40;;;;;;;5.65;3.97;;;;;;;15.77;57.72;95256.19;4991289;28;20034;-79
2022/10/03 11:59:30;;;;;;;7.18;4.38;;;;;;;15.60;57.81;95218.63;4991406;28;20041;-78
2022/10/03 12:02:46;;;;;;;10.68;4.63;;;;;;;15.71;58.06;95280.66;4985223;28;20033;-78
2022/10/03 12:05:27;;;;;;;5.40;3.88;;;;;;;15.21;58.15;95192.50;4925793;29;20032;-78
2022/10/03 12:11:01;;;;;;;4.10;3.42;;;;;;;15.32;60.04;95259.88;5007618;28;20057;-78
2022/10/03 12:13:27;;;;;;;6.97;3.95;;;;;;;15.71;58.80;95249.38;4992629;28;20046;-78
2022/10/03 12:15:56;;;;;;;6.63;4.43;;;;;;;16.11;57.26;95249.44;4992822;28;20558;-79
2022/10/03 12:18:32;;;;;;;7.78;4.57;;;;;;;16.28;56.09;95249.56;4992346;28;20135;-78
2022/10/03 12:21:26;;;;;;;5.28;4.30;;;;;;;16.49;55.02;95226.50;5010122;28;20435;-79
2022/10/03 12:24:14;;;;;;;5.55;3.63;;;;;;;16.38;53.90;95181.59;4992300;28;20065;-79
2022/10/03 12:26:48;;;;;;;4.60;3.90;;;;;;;16.95;51.31;95244.78;4991825;28;20029;-78
2022/10/03 12:29:18;;;;;;;4.45;3.15;;;;;;;16.52;50.86;95262.59;5010263;28;20038;-79
2022/10/03 12:31:52;;;;;;;3.70;3.30;;;;;;;16.48;51.66;95229.47;4998507;28;20042;-79
2022/10/03 12:34:40;;;;;;;8.98;4.47;;;;;;;16.80;51.41;95247.13;4992416;28;20562;-79
2022/10/03 12:37:35;;;;;;;6.47;3.63;;;;;;;16.87;49.16;95231.38;5009955;28;20034;-79
2022/10/03 12:40:04;;;;;;;6.38;3.60;;;;;;;17.26;49.31;95223.25;4992057;28;20044;-79
2022/10/03 12:42:45;;;;;;;6.85;3.80;;;;;;;17.25;48.70;95197.56;5010229;28;20667;-79
2022/10/03 12:45:10;;;;;;;6.57;3.83;;;;;;;17.44;48.99;95225.97;4989992;28;20038;-79
2022/10/03 12:47:52;;;;;;;5.60;3.45;;;;;;;17.13;47.01;95261.72;5009980;28;20042;-78
2022/10/03 12:50:39;;;;;;;3.47;3.17;;;;;;;16.62;48.15;95213.38;4992068;28;20518;-78
2022/10/03 12:53:16;;;;;;;4.40;3.97;;;;;;;16.63;48.96;95233.69;5009914;28;20123;-78
2022/10/03 12:56:06;;;;;;;4.55;4.03;;;;;;;16.71;49.18;95233.69;4991226;28;20419;-79
2022/10/03 12:58:44;;;;;;;8.65;4.18;;;;;;;17.24;47.96;95238.09;5009230;28;20083;-79
2022/10/03 13:01:23;;;;;;;6.57;3.88;;;;;;;16.96;48.49;95232.19;4992402;28;20049;-78
2022/10/03 13:04:08;;;;;;;9.88;3.92;;;;;;;16.67;47.93;95222.03;5011282;28;20044;-78
2022/10/03 13:06:40;;;;;;;5.90;3.88;;;;;;;16.55;47.71;95192.38;5024503;28;20075;-79
2022/10/03 13:09:32;;;;;;;8.68;4.15;;;;;;;16.58;48.44;95218.50;4992001;28;20034;-79
2022/10/03 13:12:20;;;;;;;3.63;3.33;;;;;;;16.16;48.59;95249.34;4992515;28;20463;-78